sensor_id;sensor_type;location;lat;lon;timestamp;P1;durP1;ratioP1;P2;durP2;ratioP2
25299;SDS011;13241;51.208;4.432;2023-03-26T00:01:27;12.98;;;3.08;;
25299;SDS011;13241;51.208;4.432;2023-03-26T00:03:55;8.90;;;2.80;;
25299;SDS011;13241;51.208;4.432;2023-03-26T00:06:27;14.80;;;3.42;;
25299;SDS011;13241;51.208;4.432;2023-03-26T00:08:56;25.42;;;2.05;;
25299;SDS011;13241;51.208;4.432;2023-03-26T00:11:24;17.58;;;2.80;;
25299;SDS011;13241;51.208;4.432;2023-03-26T00:13:52;16.52;;;3.58;;
25299;SDS011;13241;51.208;4.432;2023-03-26T00:16:23;14.93;;;2.78;;
25299;SDS011;13241;51.208;4.432;2023-03-26T00:18:51;11.45;;;2.42;;
25299;SDS011;13241;51.208;4.432;2023-03-26T00:21:20;5.70;;;1.98;;
25299;SDS011;13241;51.208;4.432;2023-03-26T00:23:55;6.00;;;1.95;;
25299;SDS011;13241;51.208;4.432;2023-03-26T00:26:31;15.88;;;3.05;;
25299;SDS011;13241;51.208;4.432;2023-03-26T00:28:59;18.02;;;2.60;;
25299;SDS011;13241;51.208;4.432;2023-03-26T00:31:28;12.48;;;2.78;;
25299;SDS011;13241;51.208;4.432;2023-03-26T00:33:55;24.65;;;2.78;;
25299;SDS011;13241;51.208;4.432;2023-03-26T00:36:23;13.07;;;2.15;;
25299;SDS011;13241;51.208;4.432;2023-03-26T00:38:52;15.00;;;2.55;;
25299;SDS011;13241;51.208;4.432;2023-03-26T00:41:20;5.82;;;1.45;;
25299;SDS011;13241;51.208;4.432;2023-03-26T00:43:53;15.88;;;2.22;;
25299;SDS011;13241;51.208;4.432;2023-03-26T00:46:22;10.55;;;1.70;;
25299;SDS011;13241;51.208;4.432;2023-03-26T00:48:50;14.35;;;2.55;;
25299;SDS011;13241;51.208;4.432;2023-03-26T00:51:18;10.48;;;1.98;;
25299;SDS011;13241;51.208;4.432;2023-03-26T00:53:47;4.82;;;1.88;;
25299;SDS011;13241;51.208;4.432;2023-03-26T00:56:16;7.65;;;2.05;;
25299;SDS011;13241;51.208;4.432;2023-03-26T00:58:44;11.15;;;2.00;;
25299;SDS011;13241;51.208;4.432;2023-03-26T01:01:16;5.88;;;2.42;;
25299;SDS011;13241;51.208;4.432;2023-03-26T01:03:46;13.32;;;2.25;;
25299;SDS011;13241;51.208;4.432;2023-03-26T01:06:32;10.45;;;3.28;;
25299;SDS011;13241;51.208;4.432;2023-03-26T01:09:15;8.48;;;2.05;;
25299;SDS011;13241;51.208;4.432;2023-03-26T01:11:44;8.18;;;1.98;;
25299;SDS011;13241;51.208;4.432;2023-03-26T01:14:17;8.50;;;2.67;;
25299;SDS011;13241;51.208;4.432;2023-03-26T01:16:47;5.85;;;0.88;;
25299;SDS011;13241;51.208;4.432;2023-03-26T01:21:54;8.18;;;1.10;;
25299;SDS011;13241;51.208;4.432;2023-03-26T01:24:22;5.32;;;1.75;;
25299;SDS011;13241;51.208;4.432;2023-03-26T01:26:54;6.07;;;1.73;;
25299;SDS011;13241;51.208;4.432;2023-03-26T01:32:10;6.50;;;1.95;;
25299;SDS011;13241;51.208;4.432;2023-03-26T01:37:20;18.10;;;1.85;;
25299;SDS011;13241;51.208;4.432;2023-03-26T01:39:56;7.68;;;1.67;;
25299;SDS011;13241;51.208;4.432;2023-03-26T01:42:36;5.13;;;1.60;;
25299;SDS011;13241;51.208;4.432;2023-03-26T01:45:10;10.07;;;1.40;;
25299;SDS011;13241;51.208;4.432;2023-03-26T01:47:44;7.13;;;1.92;;
25299;SDS011;13241;51.208;4.432;2023-03-26T01:50:12;6.13;;;1.48;;
25299;SDS011;13241;51.208;4.432;2023-03-26T01:52:39;11.45;;;2.20;;
25299;SDS011;13241;51.208;4.432;2023-03-26T01:55:06;13.00;;;2.00;;
25299;SDS011;13241;51.208;4.432;2023-03-26T02:00:30;10.15;;;1.60;;
25299;SDS011;13241;51.208;4.432;2023-03-26T02:03:18;4.38;;;1.60;;
25299;SDS011;13241;51.208;4.432;2023-03-26T02:06:04;3.33;;;1.45;;
25299;SDS011;13241;51.208;4.432;2023-03-26T02:09:02;12.27;;;2.58;;
25299;SDS011;13241;51.208;4.432;2023-03-26T02:11:31;12.20;;;1.60;;
25299;SDS011;13241;51.208;4.432;2023-03-26T02:14:02;8.50;;;2.22;;
25299;SDS011;13241;51.208;4.432;2023-03-26T02:16:31;6.82;;;1.50;;
25299;SDS011;13241;51.208;4.432;2023-03-26T02:18:58;10.20;;;2.25;;
25299;SDS011;13241;51.208;4.432;2023-03-26T02:21:26;10.27;;;1.77;;
25299;SDS011;13241;51.208;4.432;2023-03-26T02:23:55;6.85;;;1.92;;
25299;SDS011;13241;51.208;4.432;2023-03-26T02:26:31;14.82;;;2.92;;
25299;SDS011;13241;51.208;4.432;2023-03-26T02:29:08;9.95;;;2.03;;
25299;SDS011;13241;51.208;4.432;2023-03-26T02:31:38;9.73;;;1.65;;
25299;SDS011;13241;51.208;4.432;2023-03-26T02:34:05;4.63;;;1.60;;
25299;SDS011;13241;51.208;4.432;2023-03-26T02:36:34;11.88;;;1.90;;
25299;SDS011;13241;51.208;4.432;2023-03-26T02:39:03;5.57;;;1.83;;
25299;SDS011;13241;51.208;4.432;2023-03-26T02:41:33;7.90;;;1.75;;
25299;SDS011;13241;51.208;4.432;2023-03-26T02:44:05;7.25;;;1.67;;
25299;SDS011;13241;51.208;4.432;2023-03-26T02:47:01;7.63;;;1.92;;
25299;SDS011;13241;51.208;4.432;2023-03-26T02:49:53;8.65;;;1.13;;
25299;SDS011;13241;51.208;4.432;2023-03-26T02:52:27;8.70;;;1.75;;
25299;SDS011;13241;51.208;4.432;2023-03-26T02:54:56;9.73;;;1.85;;
25299;SDS011;13241;51.208;4.432;2023-03-26T02:57:24;15.30;;;2.13;;
25299;SDS011;13241;51.208;4.432;2023-03-26T03:00:07;5.70;;;1.95;;
25299;SDS011;13241;51.208;4.432;2023-03-26T03:02:34;10.85;;;1.77;;
25299;SDS011;13241;51.208;4.432;2023-03-26T03:05:23;18.58;;;2.78;;
25299;SDS011;13241;51.208;4.432;2023-03-26T03:08:06;9.45;;;1.75;;
25299;SDS011;13241;51.208;4.432;2023-03-26T03:10:37;5.90;;;2.05;;
25299;SDS011;13241;51.208;4.432;2023-03-26T03:13:09;7.20;;;2.92;;
25299;SDS011;13241;51.208;4.432;2023-03-26T03:15:36;13.07;;;2.47;;
25299;SDS011;13241;51.208;4.432;2023-03-26T03:18:03;6.80;;;2.35;;
25299;SDS011;13241;51.208;4.432;2023-03-26T03:20:31;8.98;;;1.13;;
25299;SDS011;13241;51.208;4.432;2023-03-26T03:23:00;7.13;;;1.38;;
25299;SDS011;13241;51.208;4.432;2023-03-26T03:25:28;8.48;;;2.20;;
25299;SDS011;13241;51.208;4.432;2023-03-26T03:27:55;9.90;;;1.40;;
25299;SDS011;13241;51.208;4.432;2023-03-26T03:30:22;9.77;;;1.63;;
25299;SDS011;13241;51.208;4.432;2023-03-26T03:33:14;8.70;;;1.65;;
25299;SDS011;13241;51.208;4.432;2023-03-26T03:35:41;12.68;;;1.75;;
25299;SDS011;13241;51.208;4.432;2023-03-26T03:38:09;3.45;;;1.45;;
25299;SDS011;13241;51.208;4.432;2023-03-26T03:40:45;3.10;;;1.58;;
25299;SDS011;13241;51.208;4.432;2023-03-26T03:43:12;12.60;;;2.50;;
25299;SDS011;13241;51.208;4.432;2023-03-26T03:46:01;12.45;;;2.08;;
25299;SDS011;13241;51.208;4.432;2023-03-26T03:48:33;9.13;;;2.15;;
25299;SDS011;13241;51.208;4.432;2023-03-26T03:51:04;1.95;;;1.17;;
25299;SDS011;13241;51.208;4.432;2023-03-26T03:53:42;2.95;;;0.93;;
25299;SDS011;13241;51.208;4.432;2023-03-26T03:56:11;9.27;;;1.23;;
25299;SDS011;13241;51.208;4.432;2023-03-26T03:59:02;8.40;;;2.33;;
25299;SDS011;13241;51.208;4.432;2023-03-26T04:01:33;6.90;;;1.40;;
25299;SDS011;13241;51.208;4.432;2023-03-26T04:04:05;10.87;;;1.20;;
25299;SDS011;13241;51.208;4.432;2023-03-26T04:06:47;11.65;;;2.67;;
25299;SDS011;13241;51.208;4.432;2023-03-26T04:09:15;10.77;;;1.45;;
25299;SDS011;13241;51.208;4.432;2023-03-26T04:11:44;12.15;;;2.40;;
25299;SDS011;13241;51.208;4.432;2023-03-26T04:14:23;6.40;;;1.58;;
25299;SDS011;13241;51.208;4.432;2023-03-26T04:16:55;6.63;;;1.73;;
25299;SDS011;13241;51.208;4.432;2023-03-26T04:19:23;13.20;;;2.47;;
25299;SDS011;13241;51.208;4.432;2023-03-26T04:21:52;9.25;;;1.40;;
25299;SDS011;13241;51.208;4.432;2023-03-26T04:24:20;8.52;;;2.10;;
25299;SDS011;13241;51.208;4.432;2023-03-26T04:27:01;9.40;;;1.55;;
25299;SDS011;13241;51.208;4.432;2023-03-26T04:29:37;10.57;;;2.30;;
25299;SDS011;13241;51.208;4.432;2023-03-26T04:32:21;6.68;;;1.10;;
25299;SDS011;13241;51.208;4.432;2023-03-26T04:34:52;5.93;;;1.80;;
25299;SDS011;13241;51.208;4.432;2023-03-26T04:37:27;10.77;;;1.83;;
25299;SDS011;13241;51.208;4.432;2023-03-26T04:40:06;9.07;;;2.17;;
25299;SDS011;13241;51.208;4.432;2023-03-26T04:42:46;12.00;;;1.90;;
25299;SDS011;13241;51.208;4.432;2023-03-26T04:45:21;12.57;;;1.95;;
25299;SDS011;13241;51.208;4.432;2023-03-26T04:47:55;7.13;;;2.17;;
25299;SDS011;13241;51.208;4.432;2023-03-26T04:50:23;9.77;;;2.63;;
25299;SDS011;13241;51.208;4.432;2023-03-26T04:52:52;10.25;;;3.47;;
25299;SDS011;13241;51.208;4.432;2023-03-26T04:56:12;9.70;;;1.88;;
25299;SDS011;13241;51.208;4.432;2023-03-26T04:59:09;9.43;;;2.33;;
25299;SDS011;13241;51.208;4.432;2023-03-26T05:01:41;6.57;;;1.75;;
25299;SDS011;13241;51.208;4.432;2023-03-26T05:04:12;12.35;;;2.10;;
25299;SDS011;13241;51.208;4.432;2023-03-26T05:06:40;11.80;;;2.13;;
25299;SDS011;13241;51.208;4.432;2023-03-26T05:09:17;4.78;;;1.50;;
25299;SDS011;13241;51.208;4.432;2023-03-26T05:12:07;6.43;;;1.70;;
25299;SDS011;13241;51.208;4.432;2023-03-26T05:14:45;6.15;;;2.90;;
25299;SDS011;13241;51.208;4.432;2023-03-26T05:17:18;8.43;;;2.37;;
25299;SDS011;13241;51.208;4.432;2023-03-26T05:19:47;8.25;;;1.75;;
25299;SDS011;13241;51.208;4.432;2023-03-26T05:22:14;4.38;;;1.20;;
25299;SDS011;13241;51.208;4.432;2023-03-26T05:25:01;5.50;;;1.55;;
25299;SDS011;13241;51.208;4.432;2023-03-26T05:27:30;12.55;;;2.50;;
25299;SDS011;13241;51.208;4.432;2023-03-26T05:30:02;6.70;;;1.85;;
25299;SDS011;13241;51.208;4.432;2023-03-26T05:32:38;8.15;;;1.55;;
25299;SDS011;13241;51.208;4.432;2023-03-26T05:35:05;4.60;;;1.30;;
25299;SDS011;13241;51.208;4.432;2023-03-26T05:37:33;4.13;;;1.73;;
25299;SDS011;13241;51.208;4.432;2023-03-26T05:40:04;17.20;;;2.30;;
25299;SDS011;13241;51.208;4.432;2023-03-26T05:42:44;17.08;;;1.65;;
25299;SDS011;13241;51.208;4.432;2023-03-26T05:45:26;5.50;;;1.88;;
25299;SDS011;13241;51.208;4.432;2023-03-26T05:47:54;2.40;;;1.08;;
25299;SDS011;13241;51.208;4.432;2023-03-26T05:50:23;9.98;;;2.55;;
25299;SDS011;13241;51.208;4.432;2023-03-26T05:52:54;4.00;;;1.38;;
25299;SDS011;13241;51.208;4.432;2023-03-26T05:55:44;7.03;;;1.23;;
25299;SDS011;13241;51.208;4.432;2023-03-26T05:58:31;9.68;;;2.05;;
25299;SDS011;13241;51.208;4.432;2023-03-26T06:01:17;7.25;;;1.33;;
25299;SDS011;13241;51.208;4.432;2023-03-26T06:04:07;12.23;;;2.10;;
25299;SDS011;13241;51.208;4.432;2023-03-26T06:06:39;7.57;;;1.77;;
25299;SDS011;13241;51.208;4.432;2023-03-26T06:09:06;11.27;;;2.30;;
25299;SDS011;13241;51.208;4.432;2023-03-26T06:11:33;7.60;;;1.45;;
25299;SDS011;13241;51.208;4.432;2023-03-26T06:14:02;8.00;;;1.20;;
25299;SDS011;13241;51.208;4.432;2023-03-26T06:16:29;7.75;;;1.70;;
25299;SDS011;13241;51.208;4.432;2023-03-26T06:19:18;6.55;;;1.20;;
25299;SDS011;13241;51.208;4.432;2023-03-26T06:21:53;10.30;;;1.95;;
25299;SDS011;13241;51.208;4.432;2023-03-26T06:24:24;19.48;;;1.80;;
25299;SDS011;13241;51.208;4.432;2023-03-26T06:27:10;9.23;;;2.70;;
25299;SDS011;13241;51.208;4.432;2023-03-26T06:29:50;5.88;;;1.67;;
25299;SDS011;13241;51.208;4.432;2023-03-26T06:32:35;12.90;;;2.67;;
25299;SDS011;13241;51.208;4.432;2023-03-26T06:35:08;14.43;;;2.30;;
25299;SDS011;13241;51.208;4.432;2023-03-26T06:37:36;8.70;;;1.40;;
25299;SDS011;13241;51.208;4.432;2023-03-26T06:40:03;6.72;;;1.88;;
25299;SDS011;13241;51.208;4.432;2023-03-26T06:42:44;5.78;;;1.65;;
25299;SDS011;13241;51.208;4.432;2023-03-26T06:45:50;7.35;;;1.42;;
25299;SDS011;13241;51.208;4.432;2023-03-26T06:48:36;3.30;;;1.13;;
25299;SDS011;13241;51.208;4.432;2023-03-26T06:51:12;8.48;;;1.70;;
25299;SDS011;13241;51.208;4.432;2023-03-26T06:54:10;7.88;;;1.42;;
25299;SDS011;13241;51.208;4.432;2023-03-26T06:56:45;12.30;;;1.33;;
25299;SDS011;13241;51.208;4.432;2023-03-26T06:59:27;3.42;;;1.67;;
25299;SDS011;13241;51.208;4.432;2023-03-26T07:02:12;2.17;;;1.17;;
25299;SDS011;13241;51.208;4.432;2023-03-26T07:04:58;9.27;;;1.40;;
25299;SDS011;13241;51.208;4.432;2023-03-26T07:07:43;3.95;;;1.13;;
25299;SDS011;13241;51.208;4.432;2023-03-26T07:10:30;2.10;;;1.00;;
25299;SDS011;13241;51.208;4.432;2023-03-26T07:13:16;8.48;;;2.80;;
25299;SDS011;13241;51.208;4.432;2023-03-26T07:16:18;3.00;;;1.70;;
25299;SDS011;13241;51.208;4.432;2023-03-26T07:19:01;3.40;;;0.80;;
25299;SDS011;13241;51.208;4.432;2023-03-26T07:21:33;3.33;;;1.48;;
25299;SDS011;13241;51.208;4.432;2023-03-26T07:24:08;8.33;;;1.43;;
25299;SDS011;13241;51.208;4.432;2023-03-26T07:26:50;3.13;;;0.85;;
25299;SDS011;13241;51.208;4.432;2023-03-26T07:32:54;2.97;;;0.70;;
25299;SDS011;13241;51.208;4.432;2023-03-26T07:35:51;3.60;;;0.85;;
25299;SDS011;13241;51.208;4.432;2023-03-26T07:39:04;2.05;;;0.85;;
25299;SDS011;13241;51.208;4.432;2023-03-26T07:45:14;4.13;;;1.20;;
25299;SDS011;13241;51.208;4.432;2023-03-26T07:48:19;1.48;;;0.98;;
25299;SDS011;13241;51.208;4.432;2023-03-26T07:50:58;3.70;;;1.00;;
25299;SDS011;13241;51.208;4.432;2023-03-26T07:53:38;6.57;;;1.20;;
25299;SDS011;13241;51.208;4.432;2023-03-26T07:59:56;5.00;;;1.55;;
25299;SDS011;13241;51.208;4.432;2023-03-26T08:17:28;16.00;;;2.70;;
25299;SDS011;13241;51.208;4.432;2023-03-26T08:23:11;16.35;;;1.45;;
25299;SDS011;13241;51.208;4.432;2023-03-26T08:26:00;1.88;;;1.23;;
25299;SDS011;13241;51.208;4.432;2023-03-26T08:28:39;1.03;;;0.93;;
25299;SDS011;13241;51.208;4.432;2023-03-26T08:31:31;6.38;;;1.30;;
25299;SDS011;13241;51.208;4.432;2023-03-26T08:34:00;3.20;;;1.33;;
25299;SDS011;13241;51.208;4.432;2023-03-26T08:36:27;2.22;;;1.13;;
25299;SDS011;13241;51.208;4.432;2023-03-26T08:38:54;2.05;;;1.02;;
25299;SDS011;13241;51.208;4.432;2023-03-26T08:41:30;4.65;;;1.75;;
25299;SDS011;13241;51.208;4.432;2023-03-26T08:44:29;9.07;;;1.65;;
25299;SDS011;13241;51.208;4.432;2023-03-26T08:47:46;1.92;;;1.33;;
25299;SDS011;13241;51.208;4.432;2023-03-26T08:50:49;5.97;;;1.58;;
25299;SDS011;13241;51.208;4.432;2023-03-26T09:17:33;7.75;;;1.02;;
25299;SDS011;13241;51.208;4.432;2023-03-26T09:37:33;1.70;;;1.08;;
25299;SDS011;13241;51.208;4.432;2023-03-26T09:40:36;3.95;;;0.80;;
25299;SDS011;13241;51.208;4.432;2023-03-26T10:00:18;1.30;;;1.08;;
25299;SDS011;13241;51.208;4.432;2023-03-26T10:30:13;1.10;;;0.73;;
25299;SDS011;13241;51.208;4.432;2023-03-26T10:35:55;0.85;;;0.77;;
25299;SDS011;13241;51.208;4.432;2023-03-26T10:38:52;0.80;;;0.80;;
25299;SDS011;13241;51.208;4.432;2023-03-26T10:47:24;1.35;;;0.40;;
25299;SDS011;13241;51.208;4.432;2023-03-26T10:50:22;3.00;;;0.65;;
25299;SDS011;13241;51.208;4.432;2023-03-26T10:55:37;2.70;;;0.57;;
25299;SDS011;13241;51.208;4.432;2023-03-26T10:58:28;3.08;;;1.15;;
25299;SDS011;13241;51.208;4.432;2023-03-26T11:01:31;6.18;;;0.88;;
25299;SDS011;13241;51.208;4.432;2023-03-26T11:04:19;0.47;;;0.43;;
25299;SDS011;13241;51.208;4.432;2023-03-26T11:09:46;1.80;;;0.95;;
25299;SDS011;13241;51.208;4.432;2023-03-26T11:15:04;0.55;;;0.47;;
25299;SDS011;13241;51.208;4.432;2023-03-26T11:26:09;3.85;;;0.80;;
25299;SDS011;13241;51.208;4.432;2023-03-26T11:32:07;2.28;;;0.47;;
25299;SDS011;13241;51.208;4.432;2023-03-26T11:34:57;0.30;;;0.30;;
25299;SDS011;13241;51.208;4.432;2023-03-26T11:37:40;0.30;;;0.30;;
25299;SDS011;13241;51.208;4.432;2023-03-26T11:40:33;1.52;;;0.60;;
25299;SDS011;13241;51.208;4.432;2023-03-26T11:43:02;0.30;;;0.30;;
25299;SDS011;13241;51.208;4.432;2023-03-26T11:45:41;0.30;;;0.22;;
25299;SDS011;13241;51.208;4.432;2023-03-26T11:51:07;0.30;;;0.30;;
25299;SDS011;13241;51.208;4.432;2023-03-26T11:53:36;0.60;;;0.40;;
25299;SDS011;13241;51.208;4.432;2023-03-26T12:01:24;0.35;;;0.35;;
25299;SDS011;13241;51.208;4.432;2023-03-26T12:06:58;0.73;;;0.35;;
25299;SDS011;13241;51.208;4.432;2023-03-26T12:12:19;0.35;;;0.35;;
25299;SDS011;13241;51.208;4.432;2023-03-26T12:14:50;3.28;;;0.77;;
25299;SDS011;13241;51.208;4.432;2023-03-26T12:19:57;0.30;;;0.30;;
25299;SDS011;13241;51.208;4.432;2023-03-26T12:27:42;0.73;;;0.43;;
25299;SDS011;13241;51.208;4.432;2023-03-26T12:32:51;0.55;;;0.40;;
25299;SDS011;13241;51.208;4.432;2023-03-26T12:35:26;0.52;;;0.40;;
25299;SDS011;13241;51.208;4.432;2023-03-26T12:38:13;0.38;;;0.38;;
25299;SDS011;13241;51.208;4.432;2023-03-26T12:40:47;0.50;;;0.50;;
25299;SDS011;13241;51.208;4.432;2023-03-26T12:46:34;0.50;;;0.50;;
25299;SDS011;13241;51.208;4.432;2023-03-26T12:49:23;1.52;;;0.75;;
25299;SDS011;13241;51.208;4.432;2023-03-26T12:51:51;2.08;;;0.60;;
25299;SDS011;13241;51.208;4.432;2023-03-26T12:57:17;0.30;;;0.30;;
25299;SDS011;13241;51.208;4.432;2023-03-26T13:05:39;2.47;;;0.50;;
25299;SDS011;13241;51.208;4.432;2023-03-26T13:19:09;2.92;;;0.65;;
25299;SDS011;13241;51.208;4.432;2023-03-26T13:30:46;1.48;;;0.73;;
25299;SDS011;13241;51.208;4.432;2023-03-26T13:35:55;1.40;;;0.93;;
25299;SDS011;13241;51.208;4.432;2023-03-26T13:39:05;2.10;;;0.85;;
25299;SDS011;13241;51.208;4.432;2023-03-26T13:41:54;1.95;;;1.30;;
25299;SDS011;13241;51.208;4.432;2023-03-26T13:47:35;2.03;;;1.38;;
25299;SDS011;13241;51.208;4.432;2023-03-26T13:50:14;1.42;;;0.90;;
25299;SDS011;13241;51.208;4.432;2023-03-26T13:52:50;1.80;;;0.98;;
25299;SDS011;13241;51.208;4.432;2023-03-26T13:55:23;1.88;;;1.10;;
25299;SDS011;13241;51.208;4.432;2023-03-26T14:04:04;1.83;;;0.90;;
25299;SDS011;13241;51.208;4.432;2023-03-26T14:12:05;3.40;;;1.60;;
25299;SDS011;13241;51.208;4.432;2023-03-26T14:17:23;5.43;;;1.58;;
25299;SDS011;13241;51.208;4.432;2023-03-26T14:22:50;1.27;;;1.13;;
25299;SDS011;13241;51.208;4.432;2023-03-26T14:28:56;1.30;;;1.00;;
25299;SDS011;13241;51.208;4.432;2023-03-26T14:31:10;2.25;;;1.15;;
25299;SDS011;13241;51.208;4.432;2023-03-26T14:37:18;4.90;;;1.15;;
25299;SDS011;13241;51.208;4.432;2023-03-26T14:39:47;1.60;;;0.73;;
25299;SDS011;13241;51.208;4.432;2023-03-26T14:51:08;8.70;;;1.77;;
25299;SDS011;13241;51.208;4.432;2023-03-26T14:53:52;1.48;;;1.05;;
25299;SDS011;13241;51.208;4.432;2023-03-26T15:13:28;4.07;;;2.00;;
25299;SDS011;13241;51.208;4.432;2023-03-26T15:24:55;1.95;;;1.52;;
25299;SDS011;13241;51.208;4.432;2023-03-26T15:33:43;4.65;;;1.33;;
25299;SDS011;13241;51.208;4.432;2023-03-26T15:42:43;5.20;;;2.53;;
25299;SDS011;13241;51.208;4.432;2023-03-26T15:48:35;5.55;;;1.67;;
25299;SDS011;13241;51.208;4.432;2023-03-26T15:51:28;9.05;;;2.78;;
25299;SDS011;13241;51.208;4.432;2023-03-26T15:54:27;4.65;;;1.88;;
25299;SDS011;13241;51.208;4.432;2023-03-26T15:57:05;7.95;;;2.15;;
25299;SDS011;13241;51.208;4.432;2023-03-26T16:03:11;1.20;;;1.10;;
25299;SDS011;13241;51.208;4.432;2023-03-26T16:05:56;9.60;;;2.25;;
25299;SDS011;13241;51.208;4.432;2023-03-26T16:08:56;5.15;;;1.70;;
25299;SDS011;13241;51.208;4.432;2023-03-26T16:16:53;5.70;;;1.00;;
25299;SDS011;13241;51.208;4.432;2023-03-26T16:22:11;5.50;;;1.25;;
25299;SDS011;13241;51.208;4.432;2023-03-26T16:25:27;4.07;;;1.20;;
25299;SDS011;13241;51.208;4.432;2023-03-26T16:36:43;12.50;;;1.63;;
25299;SDS011;13241;51.208;4.432;2023-03-26T16:39:18;3.05;;;0.63;;
25299;SDS011;13241;51.208;4.432;2023-03-26T16:44:47;2.67;;;0.98;;
25299;SDS011;13241;51.208;4.432;2023-03-26T16:50:25;3.30;;;1.40;;
25299;SDS011;13241;51.208;4.432;2023-03-26T16:55:52;7.68;;;1.17;;
25299;SDS011;13241;51.208;4.432;2023-03-26T16:58:28;4.97;;;1.50;;
25299;SDS011;13241;51.208;4.432;2023-03-26T17:08:48;4.40;;;2.03;;
25299;SDS011;13241;51.208;4.432;2023-03-26T17:16:34;3.92;;;1.23;;
25299;SDS011;13241;51.208;4.432;2023-03-26T17:24:37;3.53;;;1.08;;
25299;SDS011;13241;51.208;4.432;2023-03-26T17:27:45;7.97;;;1.75;;
25299;SDS011;13241;51.208;4.432;2023-03-26T17:33:21;12.95;;;1.27;;
25299;SDS011;13241;51.208;4.432;2023-03-26T17:36:41;4.80;;;1.45;;
25299;SDS011;13241;51.208;4.432;2023-03-26T17:44:36;1.40;;;0.95;;
25299;SDS011;13241;51.208;4.432;2023-03-26T17:47:31;8.23;;;1.38;;
25299;SDS011;13241;51.208;4.432;2023-03-26T17:50:18;9.75;;;1.83;;
25299;SDS011;13241;51.208;4.432;2023-03-26T17:53:00;4.78;;;1.70;;
25299;SDS011;13241;51.208;4.432;2023-03-26T17:55:29;2.35;;;0.77;;
25299;SDS011;13241;51.208;4.432;2023-03-26T17:57:59;1.33;;;0.98;;
25299;SDS011;13241;51.208;4.432;2023-03-26T18:00:30;3.38;;;1.65;;
25299;SDS011;13241;51.208;4.432;2023-03-26T18:03:01;4.10;;;1.20;;
25299;SDS011;13241;51.208;4.432;2023-03-26T18:05:39;8.45;;;1.95;;
25299;SDS011;13241;51.208;4.432;2023-03-26T18:08:13;7.78;;;1.58;;
25299;SDS011;13241;51.208;4.432;2023-03-26T18:19:09;3.88;;;1.27;;
25299;SDS011;13241;51.208;4.432;2023-03-26T18:21:45;9.10;;;1.58;;
25299;SDS011;13241;51.208;4.432;2023-03-26T18:24:20;7.55;;;1.60;;
25299;SDS011;13241;51.208;4.432;2023-03-26T18:27:05;6.03;;;1.00;;
25299;SDS011;13241;51.208;4.432;2023-03-26T18:29:42;3.13;;;1.17;;
25299;SDS011;13241;51.208;4.432;2023-03-26T18:32:30;3.78;;;1.13;;
25299;SDS011;13241;51.208;4.432;2023-03-26T18:35:00;5.85;;;1.50;;
25299;SDS011;13241;51.208;4.432;2023-03-26T18:37:39;4.63;;;1.80;;
25299;SDS011;13241;51.208;4.432;2023-03-26T18:40:12;3.22;;;1.60;;
25299;SDS011;13241;51.208;4.432;2023-03-26T18:42:46;0.88;;;0.60;;
25299;SDS011;13241;51.208;4.432;2023-03-26T18:45:29;1.10;;;0.98;;
25299;SDS011;13241;51.208;4.432;2023-03-26T18:48:00;9.38;;;0.77;;
25299;SDS011;13241;51.208;4.432;2023-03-26T18:50:33;3.70;;;1.27;;
25299;SDS011;13241;51.208;4.432;2023-03-26T18:53:05;6.13;;;0.93;;
25299;SDS011;13241;51.208;4.432;2023-03-26T18:55:40;3.28;;;1.45;;
25299;SDS011;13241;51.208;4.432;2023-03-26T18:58:19;9.32;;;1.23;;
25299;SDS011;13241;51.208;4.432;2023-03-26T19:01:08;5.38;;;0.90;;
25299;SDS011;13241;51.208;4.432;2023-03-26T19:03:50;3.05;;;1.08;;
25299;SDS011;13241;51.208;4.432;2023-03-26T19:06:18;7.63;;;1.40;;
25299;SDS011;13241;51.208;4.432;2023-03-26T19:08:46;6.07;;;0.93;;
25299;SDS011;13241;51.208;4.432;2023-03-26T19:11:14;2.88;;;0.68;;
25299;SDS011;13241;51.208;4.432;2023-03-26T19:13:42;6.80;;;1.17;;
25299;SDS011;13241;51.208;4.432;2023-03-26T19:16:25;9.73;;;1.17;;
25299;SDS011;13241;51.208;4.432;2023-03-26T19:19:01;7.68;;;1.98;;
25299;SDS011;13241;51.208;4.432;2023-03-26T19:21:31;1.73;;;0.93;;
25299;SDS011;13241;51.208;4.432;2023-03-26T19:23:59;4.72;;;1.73;;
25299;SDS011;13241;51.208;4.432;2023-03-26T19:26:27;0.70;;;0.70;;
25299;SDS011;13241;51.208;4.432;2023-03-26T19:28:55;5.93;;;0.82;;
25299;SDS011;13241;51.208;4.432;2023-03-26T19:31:24;0.98;;;0.55;;
25299;SDS011;13241;51.208;4.432;2023-03-26T19:33:56;1.80;;;1.02;;
25299;SDS011;13241;51.208;4.432;2023-03-26T19:36:58;2.00;;;0.70;;
25299;SDS011;13241;51.208;4.432;2023-03-26T19:39:37;1.73;;;0.55;;
25299;SDS011;13241;51.208;4.432;2023-03-26T19:42:13;3.00;;;1.33;;
25299;SDS011;13241;51.208;4.432;2023-03-26T19:44:43;8.35;;;1.00;;
25299;SDS011;13241;51.208;4.432;2023-03-26T19:47:14;1.65;;;1.30;;
25299;SDS011;13241;51.208;4.432;2023-03-26T19:50:13;2.20;;;0.60;;
25299;SDS011;13241;51.208;4.432;2023-03-26T19:59:02;0.45;;;0.45;;
25299;SDS011;13241;51.208;4.432;2023-03-26T20:01:30;2.22;;;1.42;;
25299;SDS011;13241;51.208;4.432;2023-03-26T20:04:01;2.63;;;1.17;;
25299;SDS011;13241;51.208;4.432;2023-03-26T20:06:34;1.17;;;0.90;;
25299;SDS011;13241;51.208;4.432;2023-03-26T20:09:12;1.23;;;0.95;;
25299;SDS011;13241;51.208;4.432;2023-03-26T20:11:39;4.53;;;1.45;;
25299;SDS011;13241;51.208;4.432;2023-03-26T20:14:16;0.65;;;0.63;;
25299;SDS011;13241;51.208;4.432;2023-03-26T20:16:50;2.13;;;0.80;;
25299;SDS011;13241;51.208;4.432;2023-03-26T20:19:18;7.43;;;1.08;;
25299;SDS011;13241;51.208;4.432;2023-03-26T20:21:45;1.90;;;1.63;;
25299;SDS011;13241;51.208;4.432;2023-03-26T20:24:13;6.93;;;1.33;;
25299;SDS011;13241;51.208;4.432;2023-03-26T20:26:42;3.17;;;1.30;;
25299;SDS011;13241;51.208;4.432;2023-03-26T20:29:13;7.07;;;1.38;;
25299;SDS011;13241;51.208;4.432;2023-03-26T20:31:41;24.55;;;1.85;;
25299;SDS011;13241;51.208;4.432;2023-03-26T20:34:18;2.75;;;0.50;;
25299;SDS011;13241;51.208;4.432;2023-03-26T20:36:48;5.07;;;1.63;;
25299;SDS011;13241;51.208;4.432;2023-03-26T20:39:26;2.92;;;1.60;;
25299;SDS011;13241;51.208;4.432;2023-03-26T20:41:53;1.50;;;0.82;;
25299;SDS011;13241;51.208;4.432;2023-03-26T20:44:21;1.58;;;1.05;;
25299;SDS011;13241;51.208;4.432;2023-03-26T20:46:48;1.23;;;0.93;;
25299;SDS011;13241;51.208;4.432;2023-03-26T20:49:16;8.48;;;1.65;;
25299;SDS011;13241;51.208;4.432;2023-03-26T20:51:43;1.20;;;0.73;;
25299;SDS011;13241;51.208;4.432;2023-03-26T20:54:16;1.85;;;1.00;;
25299;SDS011;13241;51.208;4.432;2023-03-26T20:56:44;4.00;;;0.87;;
25299;SDS011;13241;51.208;4.432;2023-03-26T20:59:15;3.55;;;0.95;;
25299;SDS011;13241;51.208;4.432;2023-03-26T21:04:14;1.13;;;0.82;;
25299;SDS011;13241;51.208;4.432;2023-03-26T21:06:42;0.55;;;0.55;;
25299;SDS011;13241;51.208;4.432;2023-03-26T21:09:12;2.28;;;0.90;;
25299;SDS011;13241;51.208;4.432;2023-03-26T21:12:03;2.42;;;1.00;;
25299;SDS011;13241;51.208;4.432;2023-03-26T21:14:33;3.22;;;0.75;;
25299;SDS011;13241;51.208;4.432;2023-03-26T21:17:06;1.13;;;1.02;;
25299;SDS011;13241;51.208;4.432;2023-03-26T21:19:41;2.10;;;1.25;;
25299;SDS011;13241;51.208;4.432;2023-03-26T21:30:24;10.05;;;1.33;;
25299;SDS011;13241;51.208;4.432;2023-03-26T21:32:51;5.38;;;1.05;;
25299;SDS011;13241;51.208;4.432;2023-03-26T21:35:18;0.82;;;0.57;;
25299;SDS011;13241;51.208;4.432;2023-03-26T21:37:46;2.08;;;0.98;;
25299;SDS011;13241;51.208;4.432;2023-03-26T21:40:16;1.10;;;1.00;;
25299;SDS011;13241;51.208;4.432;2023-03-26T21:42:45;1.85;;;0.60;;
25299;SDS011;13241;51.208;4.432;2023-03-26T21:45:14;3.38;;;1.30;;
25299;SDS011;13241;51.208;4.432;2023-03-26T21:47:43;1.55;;;0.82;;
25299;SDS011;13241;51.208;4.432;2023-03-26T21:50:12;1.48;;;1.10;;
25299;SDS011;13241;51.208;4.432;2023-03-26T21:52:41;0.70;;;0.40;;